Time;durP1;ratioP1;P1;durP2;ratioP2;P2;SDS_P1;SDS_P2;PMS_P1;PMS_P2;Temp;Humidity;BMP_temperature;BMP_pressure;BME280_temperature;BME280_humidity;BME280_pressure;Samples;Min_cycle;Max_cycle;Signal;HPM_P1;HPM_P2
2022/01/13 00:00:04;;;;;;;;;;;;;;;19.05;47.07;101433.81;2087794;28;19916;-67
2022/01/13 00:01:05;;;;;;;;;;;;;;;19.05;46.97;101428.38;2089600;28;20379;-67
2022/01/13 00:02:05;;;;;;;;;;;;;;;19.04;47.10;101423.91;2088891;28;19932;-67
2022/01/13 00:03:05;;;;;;;;;;;;;;;19.05;47.00;101420.16;2091130;28;20452;-67
2022/01/13 00:04:06;;;;;;;;;;;;;;;19.04;46.99;101421.16;2085766;28;19932;-67
2022/01/13 00:05:06;;;;;;;;;;;;;;;19.05;46.93;101418.28;2084570;28;19986;-67
2022/01/13 00:06:07;;;;;;;;;;;;;;;19.05;46.97;101414.69;2091521;28;19931;-68
2022/01/13 00:07:07;;;;;;;;;;;;;;;19.04;47.02;101416.56;2093828;28;19947;-67
2022/01/13 00:08:07;;;;;;;;;;;;;;;19.04;47.00;101422.03;2092325;28;20446;-67
2022/01/13 00:09:08;;;;;;;;;;;;;;;19.04;47.02;101421.16;2092533;28;19927;-67
2022/01/13 00:10:08;;;;;;;;;;;;;;;19.04;47.02;101421.16;2092578;28;19970;-67
2022/01/13 00:11:09;;;;;;;;;;;;;;;19.05;46.96;101422.91;2091919;28;20377;-67
2022/01/13 00:12:10;;;;;;;;;;;;;;;19.04;47.06;101422.03;2094702;28;19920;-66
2022/01/13 00:13:20;;;;;;;;;;;;;;;19.06;46.93;101421.94;2092959;28;19927;-67
2022/01/13 00:15:25;;;;;;;;;;;;;;;19.06;46.85;101422.78;2086209;28;20864;-67
2022/01/13 00:19:05;;;;;;;;;;;;;;;19.08;46.87;101410.84;2089128;28;20836;-66
2022/01/13 00:20:29;;;;;;;;;;;;;;;19.10;46.80;101408.88;2083654;28;19916;-67
2022/01/13 00:21:34;;;;;;;;;;;;;;;19.11;46.61;101410.63;2085563;28;19919;-65
2022/01/13 00:24:38;;;;;;;;;;;;;;;19.14;46.60;101405.78;2093069;28;19912;-66
2022/01/13 00:25:38;;;;;;;;;;;;;;;19.16;46.51;101403.81;2089689;28;19931;-66
2022/01/13 00:26:39;;;;;;;;;;;;;;;19.17;46.61;101404.69;2094680;28;19965;-65
2022/01/13 00:27:44;;;;;;;;;;;;;;;19.18;46.56;101410.03;2096825;28;20589;-66
2022/01/13 00:28:47;;;;;;;;;;;;;;;19.18;46.42;101407.31;2093474;28;19991;-66
2022/01/13 00:29:48;;;;;;;;;;;;;;;19.20;46.37;101398.97;2092120;28;20286;-66
2022/01/13 00:30:53;;;;;;;;;;;;;;;19.22;46.40;101395.13;2091641;28;19924;-65
2022/01/13 00:31:53;;;;;;;;;;;;;;;19.23;46.38;101396.91;2087643;28;19959;-66
2022/01/13 00:32:53;;;;;;;;;;;;;;;19.24;46.42;101395.88;2089185;28;20406;-66
2022/01/13 00:33:57;;;;;;;;;;;;;;;19.25;46.37;101397.63;2090105;28;19920;-65
2022/01/13 00:34:58;;;;;;;;;;;;;;;19.26;46.24;101404.84;2091806;28;19992;-66
2022/01/13 00:36:00;;;;;;;;;;;;;;;19.28;46.21;101396.53;2090328;28;19915;-65
2022/01/13 00:37:00;;;;;;;;;;;;;;;19.30;46.22;101401.88;2093366;28;20015;-65
2022/01/13 00:38:00;;;;;;;;;;;;;;;19.32;46.29;101408.09;2092214;28;20434;-66
2022/01/13 00:39:01;;;;;;;;;;;;;;;19.33;46.23;101405.25;2080735;28;20006;-65
2022/01/13 00:40:02;;;;;;;;;;;;;;;19.35;46.14;101407.84;2083749;28;20318;-65
2022/01/13 00:41:02;;;;;;;;;;;;;;;19.36;46.18;101410.47;2091691;28;19923;-65
2022/01/13 00:42:03;;;;;;;;;;;;;;;19.37;46.14;101414.06;2091367;28;19920;-66
2022/01/13 00:43:03;;;;;;;;;;;;;;;19.39;46.12;101409.34;2094359;28;19934;-66
2022/01/13 00:44:05;;;;;;;;;;;;;;;19.40;46.09;101411.09;2091453;28;19916;-66
2022/01/13 00:45:06;;;;;;;;;;;;;;;19.41;46.05;101412.84;2091658;28;20270;-67
2022/01/13 00:46:07;;;;;;;;;;;;;;;19.43;46.00;101410.88;2094820;28;19930;-66
2022/01/13 00:47:10;;;;;;;;;;;;;;;19.44;45.99;101413.47;2091413;28;19926;-66
2022/01/13 00:48:10;;;;;;;;;;;;;;;19.45;46.05;101411.59;2091248;28;20003;-66
2022/01/13 00:49:11;;;;;;;;;;;;;;;19.46;45.88;101416.09;2093211;28;20406;-66
2022/01/13 00:50:11;;;;;;;;;;;;;;;19.47;45.92;101421.41;2093927;28;19924;-66
2022/01/13 00:51:12;;;;;;;;;;;;;;;19.49;45.91;101421.31;2091612;28;19960;-66
2022/01/13 00:52:12;;;;;;;;;;;;;;;19.48;45.84;101412.25;2096542;28;20263;-66
2022/01/13 00:53:12;;;;;;;;;;;;;;;19.51;45.77;101416.59;2093258;28;20084;-66
2022/01/13 00:54:13;;;;;;;;;;;;;;;19.51;45.82;101416.59;2082571;28;19947;-66
2022/01/13 00:55:20;;;;;;;;;;;;;;;19.53;45.76;101417.34;2088359;28;19955;-66
2022/01/13 00:56:21;;;;;;;;;;;;;;;19.53;45.73;101425.56;2100428;27;19915;-66
2022/01/13 00:57:21;;;;;;;;;;;;;;;19.55;45.69;101422.69;2092026;28;20208;-66
2022/01/13 00:58:21;;;;;;;;;;;;;;;19.55;45.66;101411.75;2093360;28;19927;-66
2022/01/13 00:59:21;;;;;;;;;;;;;;;19.57;45.64;101423.44;2097078;28;20052;-66
2022/01/13 01:00:22;;;;;;;;;;;;;;;19.58;45.50;101417.00;2087762;28;19919;-66
2022/01/13 01:01:22;;;;;;;;;;;;;;;19.58;45.53;101415.13;2091690;28;20287;-66
2022/01/13 01:02:22;;;;;;;;;;;;;;;19.58;45.54;101409.66;2089717;28;20094;-66
2022/01/13 01:03:23;;;;;;;;;;;;;;;19.58;45.77;101406.91;2086960;28;20638;-66
2022/01/13 01:04:26;;;;;;;;;;;;;;;19.57;45.51;101413.34;2087738;28;19943;-66
2022/01/13 01:05:27;;;;;;;;;;;;;;;19.59;45.62;101405.03;2089609;28;20303;-66
2022/01/13 01:06:27;;;;;;;;;;;;;;;19.60;45.53;101409.50;2089352;28;19912;-65
2022/01/13 01:07:27;;;;;;;;;;;;;;;19.60;45.56;101406.78;2089843;28;20353;-66
2022/01/13 01:08:27;;;;;;;;;;;;;;;19.59;45.52;101411.38;2087742;28;19993;-65
2022/01/13 01:10:10;;;;;;;;;;;;;;;19.60;45.46;101401.31;2088409;28;20466;-66
2022/01/13 01:10:54;;;;;;;;;;;;;;;19.60;45.51;101396.72;2074735;28;19959;-65
2022/01/13 01:11:55;;;;;;;;;;;;;;;19.59;45.49;101405.91;2089709;28;20003;-65
2022/01/13 01:12:56;;;;;;;;;;;;;;;19.60;45.35;101401.31;2089571;28;19912;-65
2022/01/13 01:13:57;;;;;;;;;;;;;;;19.59;45.40;101399.56;2091781;28;20704;-65
2022/01/13 01:14:58;;;;;;;;;;;;;;;19.60;45.42;101407.66;2090557;28;20276;-64
2022/01/13 01:16:00;;;;;;;;;;;;;;;19.60;45.39;101401.31;2088005;28;19941;-65
2022/01/13 01:17:01;;;;;;;;;;;;;;;19.60;45.45;101404.94;2090354;28;19919;-65
2022/01/13 01:18:11;;;;;;;;;;;;;;;19.59;45.45;101400.44;2090175;28;20321;-65
2022/01/13 01:19:13;;;;;;;;;;;;;;;19.59;45.45;101403.16;2088451;28;19997;-65
2022/01/13 01:20:14;;;;;;;;;;;;;;;19.59;45.56;101402.31;2082417;28;19927;-66
2022/01/13 01:22:43;;;;;;;;;;;;;;;19.58;45.53;101398.72;2091058;28;20859;-66
2022/01/13 01:27:24;;;;;;;;;;;;;;;19.57;45.45;101399.69;2090707;28;20609;-66
2022/01/13 01:28:34;;;;;;;;;;;;;;;19.56;45.50;101408.91;2089411;28;19951;-66
2022/01/13 01:29:43;;;;;;;;;;;;;;;19.56;45.55;101406.16;2090946;28;19920;-66
2022/01/13 01:30:45;;;;;;;;;;;;;;;19.56;45.48;101403.41;2088423;28;19927;-66
2022/01/13 01:31:49;;;;;;;;;;;;;;;19.57;45.53;101407.88;2090382;28;19927;-65
2022/01/13 01:32:49;;;;;;;;;;;;;;;19.56;45.59;101406.16;2091504;28;19924;-66
2022/01/13 01:34:01;;;;;;;;;;;;;;;19.56;45.55;101406.16;2087629;28;19978;-65
2022/01/13 01:35:04;;;;;;;;;;;;;;;19.57;45.63;101412.50;2090970;28;20464;-66
2022/01/13 01:36:05;;;;;;;;;;;;;;;19.55;45.52;101404.44;2092865;28;19931;-66
2022/01/13 01:37:15;;;;;;;;;;;;;;;19.55;45.58;101403.53;2077931;28;19924;-66
2022/01/13 01:38:15;;;;;;;;;;;;;;;19.53;45.59;101400.94;2083174;28;19924;-66
2022/01/13 01:39:15;;;;;;;;;;;;;;;19.53;45.64;101403.69;2079616;28;19928;-66
2022/01/13 01:40:16;;;;;;;;;;;;;;;19.54;45.57;101408.13;2085396;28;20310;-66
2022/01/13 01:41:18;;;;;;;;;;;;;;;19.53;45.54;101400.94;2092591;28;19920;-66
2022/01/13 01:42:20;;;;;;;;;;;;;;;19.55;45.58;101403.53;2093351;28;19920;-66
2022/01/13 01:43:21;;;;;;;;;;;;;;;19.53;45.57;101400.06;2094698;28;20044;-66
2022/01/13 01:44:30;;;;;;;;;;;;;;;19.53;45.64;101397.34;2096364;28;19973;-66
2022/01/13 01:45:34;;;;;;;;;;;;;;;19.54;45.69;101401.81;2093277;28;19920;-66
2022/01/13 01:46:35;;;;;;;;;;;;;;;19.53;45.67;101406.41;2092161;28;20358;-66
2022/01/13 01:47:35;;;;;;;;;;;;;;;19.54;45.73;101401.81;2090488;28;20623;-66
2022/01/13 01:48:36;;;;;;;;;;;;;;;19.52;45.74;101399.19;2089666;28;19920;-66
2022/01/13 01:49:42;;;;;;;;;;;;;;;19.52;45.73;101404.66;2088895;28;20613;-65
2022/01/13 01:50:42;;;;;;;;;;;;;;;19.52;45.74;101398.31;2093200;28;20038;-65
2022/01/13 01:51:43;;;;;;;;;;;;;;;19.52;45.60;101404.66;2092738;28;20018;-65
2022/01/13 01:52:48;;;;;;;;;;;;;;;19.51;45.76;101400.19;2090243;28;19909;-66
2022/01/13 01:53:48;;;;;;;;;;;;;;;19.52;45.74;101414.72;2092472;28;19920;-66
2022/01/13 01:54:49;;;;;;;;;;;;;;;19.51;45.70;101402.06;2091102;28;20081;-66
2022/01/13 01:55:49;;;;;;;;;;;;;;;19.50;45.74;101395.72;2096458;28;19988;-66
2022/01/13 01:56:50;;;;;;;;;;;;;;;19.49;45.75;101396.69;2093260;28;19916;-66
2022/01/13 01:57:51;;;;;;;;;;;;;;;19.49;45.75;101399.44;2091656;28;19927;-66
2022/01/13 01:58:52;;;;;;;;;;;;;;;19.49;45.72;101399.44;2086995;28;19927;-66
2022/01/13 01:59:53;;;;;;;;;;;;;;;19.49;45.76;101399.44;2082424;28;19927;-66
2022/01/13 02:00:55;;;;;;;;;;;;;;;19.48;45.79;101394.97;2082511;28;19920;-66
2022/01/13 02:01:55;;;;;;;;;;;;;;;19.47;45.80;101401.41;2088719;28;19920;-66
2022/01/13 02:02:55;;;;;;;;;;;;;;;19.47;45.77;101398.69;2083930;28;20015;-66
2022/01/13 02:03:56;;;;;;;;;;;;;;;19.46;45.80;101397.81;2083529;28;20366;-66
2022/01/13 02:04:57;;;;;;;;;;;;;;;19.47;45.68;101401.41;2090714;28;19924;-66
2022/01/13 02:05:58;;;;;;;;;;;;;;;19.45;45.86;101398.81;2087236;28;19966;-66
2022/01/13 02:07:03;;;;;;;;;;;;;;;19.46;45.82;101399.69;2092338;28;20681;-66
2022/01/13 02:08:05;;;;;;;;;;;;;;;19.44;45.79;101399.78;2091389;28;19920;-66
2022/01/13 02:09:07;;;;;;;;;;;;;;;19.44;45.89;101396.19;2083036;28;19911;-66
2022/01/13 02:10:08;;;;;;;;;;;;;;;19.43;45.87;101403.53;2086322;28;20315;-66
2022/01/13 02:11:08;;;;;;;;;;;;;;;19.43;45.81;101400.78;2081435;28;19912;-66
2022/01/13 02:12:13;;;;;;;;;;;;;;;19.42;45.81;101392.69;2089110;28;20611;-66
2022/01/13 02:13:20;;;;;;;;;;;;;;;19.42;45.83;101398.16;2081796;28;20509;-66
2022/01/13 02:15:35;;;;;;;;;;;;;;;19.43;45.92;101410.88;2090193;28;20369;-66
2022/01/13 02:16:44;;;;;;;;;;;;;;;19.43;45.85;101408.13;2089941;28;20011;-66
2022/01/13 02:17:44;;;;;;;;;;;;;;;19.41;45.95;101407.38;2091692;28;19924;-66
2022/01/13 02:18:44;;;;;;;;;;;;;;;19.41;45.89;101408.25;2092174;28;19924;-66
2022/01/13 02:19:46;;;;;;;;;;;;;;;19.41;45.85;101418.31;2093239;28;19916;-66
2022/01/13 02:20:48;;;;;;;;;;;;;;;19.40;45.93;101420.19;2084346;28;19924;-66
2022/01/13 02:21:48;;;;;;;;;;;;;;;19.40;45.99;101419.28;2086485;28;20417;-66
2022/01/13 02:22:48;;;;;;;;;;;;;;;19.40;45.95;101422.91;2103763;28;19973;-66
2022/01/13 02:23:49;;;;;;;;;;;;;;;19.38;45.93;101422.16;2094295;28;19920;-69
2022/01/13 02:24:49;;;;;;;;;;;;;;;19.38;45.88;101426.75;2093401;28;19966;-67
2022/01/13 02:25:49;;;;;;;;;;;;;;;19.38;45.99;101424.03;2092633;28;19916;-67
2022/01/13 02:26:50;;;;;;;;;;;;;;;19.38;45.93;101429.50;2091257;28;19951;-67
2022/01/13 02:27:50;;;;;;;;;;;;;;;19.37;46.05;101425.00;2092049;28;19908;-68
2022/01/13 02:28:53;;;;;;;;;;;;;;;19.37;46.05;101433.22;2098353;28;19928;-68
2022/01/13 02:29:54;;;;;;;;;;;;;;;19.36;46.08;101432.34;2096639;28;20002;-68
2022/01/13 02:30:54;;;;;;;;;;;;;;;19.37;46.03;101433.22;2099366;28;19939;-68
2022/01/13 02:31:55;;;;;;;;;;;;;;;19.36;45.95;101439.69;2098453;28;19920;-68
2022/01/13 02:32:55;;;;;;;;;;;;;;;19.35;46.05;101441.50;2098227;28;19949;-68
2022/01/13 02:33:56;;;;;;;;;;;;;;;19.36;46.14;101434.22;2082443;28;19916;-67
2022/01/13 02:34:56;;;;;;;;;;;;;;;19.35;46.08;101446.13;2082506;28;19916;-67
2022/01/13 02:35:56;;;;;;;;;;;;;;;19.34;46.03;101444.38;2098804;27;20013;-67
2022/01/13 02:36:58;;;;;;;;;;;;;;;19.33;46.06;101439.91;2102554;27;19933;-67
2022/01/13 02:37:58;;;;;;;;;;;;;;;19.31;45.99;101445.50;2090342;28;20374;-67
2022/01/13 02:39:00;;;;;;;;;;;;;;;19.33;46.05;101442.63;2094115;28;19962;-67
2022/01/13 02:40:00;;;;;;;;;;;;;;;19.31;46.05;101444.63;2084315;28;19916;-67
2022/01/13 02:41:02;;;;;;;;;;;;;;;19.31;46.03;101444.63;2087452;28;20743;-66
2022/01/13 02:42:04;;;;;;;;;;;;;;;19.31;46.19;101444.63;2096913;28;19938;-67
2022/01/13 02:43:05;;;;;;;;;;;;;;;19.30;46.02;101442.88;2092818;28;19916;-66
2022/01/13 02:44:14;;;;;;;;;;;;;;;19.30;46.10;101448.34;2093105;28;19958;-65
2022/01/13 02:45:16;;;;;;;;;;;;;;;19.30;46.11;101448.34;2092820;28;20522;-67
2022/01/13 02:48:35;;;;;;;;;;;;;;;19.28;46.06;101438.41;2099167;28;20273;-68
2022/01/13 02:49:35;;;;;;;;;;;;;;;19.27;46.18;101431.19;2098381;28;20314;-67
2022/01/13 02:50:36;;;;;;;;;;;;;;;19.27;46.24;101431.19;2098581;28;19920;-68
2022/01/13 02:51:37;;;;;;;;;;;;;;;19.26;46.20;101432.19;2098734;28;20724;-68
2022/01/13 02:52:38;;;;;;;;;;;;;;;19.26;46.22;101431.31;2098065;28;19975;-68
2022/01/13 02:53:38;;;;;;;;;;;;;;;19.25;46.24;101433.16;2097113;28;20398;-68
2022/01/13 02:54:38;;;;;;;;;;;;;;;19.25;46.13;101433.16;2106166;28;19912;-68
2022/01/13 02:55:39;;;;;;;;;;;;;;;19.25;46.10;101430.41;2099075;28;19916;-68
2022/01/13 02:56:39;;;;;;;;;;;;;;;19.24;46.26;101428.69;2098840;28;19920;-68
2022/01/13 02:57:39;;;;;;;;;;;;;;;19.23;46.23;101421.50;2098594;28;19920;-68
2022/01/13 02:58:40;;;;;;;;;;;;;;;19.24;46.18;101428.69;2097037;28;19983;-68
2022/01/13 02:59:40;;;;;;;;;;;;;;;19.24;46.13;101419.63;2097793;28;19920;-68
2022/01/13 03:00:41;;;;;;;;;;;;;;;19.23;46.27;101435.16;2093213;28;19920;-68
2022/01/13 03:01:41;;;;;;;;;;;;;;;19.22;46.27;101425.19;2080191;28;20008;-69
2022/01/13 03:02:45;;;;;;;;;;;;;;;19.23;46.11;101426.06;2088149;28;20914;-67
2022/01/13 03:03:46;;;;;;;;;;;;;;;19.23;46.25;101431.53;2104558;28;19920;-68
2022/01/13 03:04:47;;;;;;;;;;;;;;;19.22;46.22;101419.72;2100618;28;20772;-68
2022/01/13 03:05:47;;;;;;;;;;;;;;;19.22;46.27;101413.41;2098370;28;19916;-68
2022/01/13 03:06:48;;;;;;;;;;;;;;;19.20;46.23;101408.03;2091941;28;20426;-68
2022/01/13 03:07:48;;;;;;;;;;;;;;;19.20;46.30;101405.31;2095620;28;20134;-68
2022/01/13 03:08:49;;;;;;;;;;;;;;;19.20;46.32;101399.84;2100118;28;19942;-68
2022/01/13 03:09:50;;;;;;;;;;;;;;;19.19;46.38;101398.09;2098034;28;19916;-68
2022/01/13 03:10:50;;;;;;;;;;;;;;;19.20;46.24;101404.44;2098709;28;19919;-68
2022/01/13 03:11:51;;;;;;;;;;;;;;;19.20;46.29;101399.84;2090809;28;19923;-68
2022/01/13 03:12:51;;;;;;;;;;;;;;;19.19;46.30;101398.09;2090851;28;20225;-68
2022/01/13 03:13:51;;;;;;;;;;;;;;;19.18;46.26;101390.91;2092167;28;20188;-68
2022/01/13 03:14:52;;;;;;;;;;;;;;;19.17;46.26;101397.34;2090830;28;19917;-68
2022/01/13 03:15:52;;;;;;;;;;;;;;;19.17;46.25;101402.81;2087341;28;19930;-68
2022/01/13 03:16:52;;;;;;;;;;;;;;;19.17;46.31;101400.09;2089614;28;19916;-68
2022/01/13 03:17:52;;;;;;;;;;;;;;;19.18;46.31;101404.59;2094074;28;19920;-68
2022/01/13 03:18:53;;;;;;;;;;;;;;;19.17;46.31;101410.16;2096047;28;20000;-68
2022/01/13 03:19:53;;;;;;;;;;;;;;;19.16;46.38;101409.28;2098660;28;19916;-68
2022/01/13 03:20:53;;;;;;;;;;;;;;;19.16;46.28;101414.75;2101633;28;19920;-68
2022/01/13 03:21:54;;;;;;;;;;;;;;;19.17;46.28;101407.41;2099636;28;19912;-67
2022/01/13 03:22:54;;;;;;;;;;;;;;;19.17;46.25;101410.16;2098421;28;19943;-68
2022/01/13 03:23:55;;;;;;;;;;;;;;;19.16;46.33;101419.34;2089900;28;19924;-68
2022/01/13 03:24:56;;;;;;;;;;;;;;;19.15;46.36;101417.59;2089271;28;19926;-68
2022/01/13 03:25:56;;;;;;;;;;;;;;;19.16;46.26;101419.34;2092030;28;20014;-68
2022/01/13 03:26:57;;;;;;;;;;;;;;;19.15;46.38;101423.94;2099602;28;19927;-68
2022/01/13 03:28:05;;;;;;;;;;;;;;;19.14;46.26;101422.19;2100418;28;20519;-68
2022/01/13 03:30:12;;;;;;;;;;;;;;;19.13;46.34;101423.16;2083370;28;19925;-67
2022/01/13 03:31:12;;;;;;;;;;;;;;;19.14;46.34;101422.19;2083541;28;20099;-68
2022/01/13 03:32:14;;;;;;;;;;;;;;;19.14;46.38;101427.66;2093117;28;19923;-67
2022/01/13 03:33:14;;;;;;;;;;;;;;;19.13;46.40;101423.16;2088491;28;20123;-67
2022/01/13 03:34:15;;;;;;;;;;;;;;;19.13;46.30;101428.63;2083586;28;20097;-67
2022/01/13 03:35:15;;;;;;;;;;;;;;;19.13;46.37;101431.38;2085534;28;19916;-67
2022/01/13 03:36:16;;;;;;;;;;;;;;;19.12;46.31;101435.09;2090001;28;19919;-68
2022/01/13 03:37:16;;;;;;;;;;;;;;;19.11;46.30;101436.09;2087386;28;20335;-67
2022/01/13 03:38:17;;;;;;;;;;;;;;;19.11;46.37;101432.47;2094024;28;20394;-66
2022/01/13 03:39:17;;;;;;;;;;;;;;;19.12;46.31;101436.97;2088352;28;20689;-66
2022/01/13 03:40:17;;;;;;;;;;;;;;;19.10;46.37;101431.63;2087959;28;20390;-66
2022/01/13 03:41:18;;;;;;;;;;;;;;;19.10;46.29;101437.06;2091903;28;20351;-66
2022/01/13 03:42:18;;;;;;;;;;;;;;;19.10;46.46;101437.06;2091222;28;20386;-66
2022/01/13 03:43:19;;;;;;;;;;;;;;;19.10;46.36;101439.81;2090938;28;19984;-66
2022/01/13 03:44:27;;;;;;;;;;;;;;;19.10;46.34;101437.06;2092575;28;19908;-66
2022/01/13 03:45:28;;;;;;;;;;;;;;;19.09;46.33;101432.63;2091233;28;20031;-66
2022/01/13 03:46:29;;;;;;;;;;;;;;;19.09;46.37;101439.94;2093267;28;19966;-66
2022/01/13 03:47:29;;;;;;;;;;;;;;;19.09;46.38;101438.09;2089180;28;20109;-66
2022/01/13 03:48:29;;;;;;;;;;;;;;;19.09;46.48;101440.81;2088370;28;19928;-66
2022/01/13 03:49:31;;;;;;;;;;;;;;;19.08;46.32;101444.50;2091590;28;20218;-66
2022/01/13 03:50:31;;;;;;;;;;;;;;;19.08;46.43;101433.59;2092097;28;19930;-66
2022/01/13 03:52:05;;;;;;;;;;;;;;;19.08;46.52;101425.38;2090040;28;19927;-66
2022/01/13 03:53:24;;;;;;;;;;;;;;;19.06;46.44;101430.13;2072357;28;19996;-66
2022/01/13 03:54:34;;;;;;;;;;;;;;;19.06;46.49;101421.94;2087965;28;19916;-66
2022/01/13 03:55:34;;;;;;;;;;;;;;;19.06;46.45;101424.66;2087118;28;19917;-66
2022/01/13 03:56:52;;;;;;;;;;;;;;;19.06;46.44;101424.66;2082177;28;20007;-66
2022/01/13 03:58:10;;;;;;;;;;;;;;;19.05;46.42;101422.91;2081465;28;20006;-66
2022/01/13 03:59:31;;;;;;;;;;;;;;;19.04;46.52;101426.63;2088230;28;20139;-66
2022/01/13 04:00:40;;;;;;;;;;;;;;;19.04;46.44;101432.09;2088122;28;19927;-66
2022/01/13 04:01:46;;;;;;;;;;;;;;;19.03;46.39;101438.53;2092624;28;20666;-67
2022/01/13 04:02:47;;;;;;;;;;;;;;;19.03;46.39;101430.34;2091093;28;20729;-67
2022/01/13 04:03:47;;;;;;;;;;;;;;;19.03;46.55;101433.97;2093238;28;21351;-67
2022/01/13 04:04:48;;;;;;;;;;;;;;;19.03;46.45;101431.22;2093977;28;19946;-67
2022/01/13 04:06:02;;;;;;;;;;;;;;;19.03;46.51;101424.88;2095390;28;19916;-67
2022/01/13 04:07:05;;;;;;;;;;;;;;;19.02;46.48;101431.34;2094578;28;20671;-67
2022/01/13 04:08:05;;;;;;;;;;;;;;;19.01;46.52;101425.00;2084077;28;19943;-67
2022/01/13 04:09:09;;;;;;;;;;;;;;;19.02;46.52;101423.13;2085731;28;19999;-67
2022/01/13 04:10:29;;;;;;;;;;;;;;;19.02;46.51;101423.13;2092507;28;19923;-67
2022/01/13 04:11:31;;;;;;;;;;;;;;;19.00;46.46;101416.91;2094231;28;19916;-67
2022/01/13 04:12:32;;;;;;;;;;;;;;;19.01;46.46;101418.66;2090464;28;19920;-67
2022/01/13 04:14:51;;;;;;;;;;;;;;;19.00;46.39;101414.19;2086781;28;19970;-67
2022/01/13 04:15:51;;;;;;;;;;;;;;;19.00;46.49;101411.44;2095266;28;20013;-67
2022/01/13 04:16:51;;;;;;;;;;;;;;;19.00;46.41;101412.31;2099569;28;19920;-67
2022/01/13 04:17:52;;;;;;;;;;;;;;;18.99;46.45;101416.06;2097858;28;19930;-67
2022/01/13 04:18:54;;;;;;;;;;;;;;;18.99;46.57;101415.19;2095045;28;19915;-67
2022/01/13 04:19:55;;;;;;;;;;;;;;;18.99;46.38;101412.44;2084197;28;19972;-67
2022/01/13 04:20:55;;;;;;;;;;;;;;;18.99;46.44;101409.72;2084948;28;19916;-67
2022/01/13 04:21:55;;;;;;;;;;;;;;;18.99;46.55;101412.44;2095139;28;19940;-67
2022/01/13 04:22:56;;;;;;;;;;;;;;;18.97;46.52;101409.81;2091642;28;19916;-67
2022/01/13 04:23:57;;;;;;;;;;;;;;;18.98;46.50;101410.69;2085710;28;19919;-67
2022/01/13 04:24:57;;;;;;;;;;;;;;;18.98;46.51;101411.56;2097958;28;19927;-67
2022/01/13 04:25:58;;;;;;;;;;;;;;;18.99;46.57;101417.91;2098235;28;19943;-67
2022/01/13 04:26:59;;;;;;;;;;;;;;;18.98;46.54;101416.16;2098912;28;19931;-68
2022/01/13 04:28:02;;;;;;;;;;;;;;;18.97;46.59;101414.44;2096201;28;19984;-67
2022/01/13 04:31:16;;;;;;;;;;;;;;;18.97;46.59;101409.81;2097447;28;19928;-67
2022/01/13 04:32:16;;;;;;;;;;;;;;;18.97;46.67;101414.44;2093959;28;19948;-66
2022/01/13 04:33:17;;;;;;;;;;;;;;;18.97;46.62;101408.97;2085300;28;20234;-66
2022/01/13 04:34:17;;;;;;;;;;;;;;;18.97;46.66;101414.44;2083602;28;19928;-66
2022/01/13 04:35:18;;;;;;;;;;;;;;;18.96;46.60;101415.41;2097698;28;20547;-65
2022/01/13 04:36:18;;;;;;;;;;;;;;;18.94;46.77;101426.47;2091975;28;19916;-66
2022/01/13 04:37:18;;;;;;;;;;;;;;;18.94;46.62;101421.00;2087374;28;20149;-66
2022/01/13 04:38:19;;;;;;;;;;;;;;;18.95;46.53;101421.88;2087049;28;20109;-66
2022/01/13 04:39:19;;;;;;;;;;;;;;;18.95;46.59;101427.31;2090638;28;20597;-66
2022/01/13 04:40:19;;;;;;;;;;;;;;;18.94;46.69;101425.59;2090761;28;19908;-66
2022/01/13 04:41:30;;;;;;;;;;;;;;;18.94;46.63;101428.34;2082336;28;19920;-66
2022/01/13 04:42:35;;;;;;;;;;;;;;;18.94;46.61;101433.78;2082878;28;20338;-66
2022/01/13 04:43:35;;;;;;;;;;;;;;;18.93;46.79;101440.22;2088306;28;19924;-66
2022/01/13 04:44:35;;;;;;;;;;;;;;;18.94;46.60;101442.00;2093105;28;19962;-66
2022/01/13 04:45:36;;;;;;;;;;;;;;;18.93;46.68;101448.44;2092752;28;19927;-66
2022/01/13 04:46:36;;;;;;;;;;;;;;;18.92;46.63;101433.03;2092375;28;19928;-66
2022/01/13 04:47:37;;;;;;;;;;;;;;;18.93;46.77;101437.50;2097540;28;19919;-66
2022/01/13 04:48:37;;;;;;;;;;;;;;;18.91;46.69;101432.13;2094060;28;19919;-66
2022/01/13 04:49:38;;;;;;;;;;;;;;;18.91;46.65;101431.28;2095123;28;19982;-66
2022/01/13 04:50:38;;;;;;;;;;;;;;;18.91;46.77;101431.28;2094147;28;19908;-66
2022/01/13 04:51:39;;;;;;;;;;;;;;;18.90;46.65;101429.53;2094818;28;19951;-66
2022/01/13 04:52:39;;;;;;;;;;;;;;;18.90;46.71;101435.00;2093219;28;19919;-66
2022/01/13 04:53:40;;;;;;;;;;;;;;;18.90;46.60;101441.34;2093376;28;19966;-66
2022/01/13 04:54:40;;;;;;;;;;;;;;;18.89;46.66;101434.13;2095069;28;19931;-66
2022/01/13 04:55:49;;;;;;;;;;;;;;;18.90;46.82;101445.94;2097431;28;19919;-66
2022/01/13 04:57:50;;;;;;;;;;;;;;;18.89;46.64;101450.53;2093289;28;19930;-66
2022/01/13 04:58:50;;;;;;;;;;;;;;;18.88;46.81;101442.44;2069673;28;19928;-66
2022/01/13 04:59:50;;;;;;;;;;;;;;;18.87;46.82;101451.63;2083007;28;19924;-66
2022/01/13 05:00:51;;;;;;;;;;;;;;;18.88;46.62;101447.91;2090995;28;19989;-66
2022/01/13 05:01:51;;;;;;;;;;;;;;;18.87;46.73;101446.19;2091404;28;19920;-66
2022/01/13 05:02:51;;;;;;;;;;;;;;;18.87;46.71;101440.72;2092610;28;19924;-66
2022/01/13 05:03:52;;;;;;;;;;;;;;;18.87;46.82;101448.91;2082158;28;19920;-65
2022/01/13 05:04:55;;;;;;;;;;;;;;;18.86;46.69;101450.75;2081101;28;19999;-65
2022/01/13 05:05:55;;;;;;;;;;;;;;;18.84;46.68;101444.56;2091791;28;20511;-65
2022/01/13 05:06:55;;;;;;;;;;;;;;;18.85;46.71;101451.75;2091410;28;20401;-65
2022/01/13 05:07:56;;;;;;;;;;;;;;;18.84;46.72;101445.41;2092885;28;19923;-65
2022/01/13 05:08:56;;;;;;;;;;;;;;;18.83;46.71;101446.38;2094466;28;19916;-65
2022/01/13 05:09:56;;;;;;;;;;;;;;;18.83;46.85;101446.38;2088639;28;19920;-65
2022/01/13 05:10:56;;;;;;;;;;;;;;;18.83;46.71;101434.59;2092235;28;19912;-66
2022/01/13 05:11:58;;;;;;;;;;;;;;;18.81;46.72;101432.00;2083045;28;19943;-65
2022/01/13 05:12:58;;;;;;;;;;;;;;;18.81;46.79;101437.47;2082213;28;19917;-66
2022/01/13 05:13:59;;;;;;;;;;;;;;;18.81;46.69;101429.25;2082581;28;19927;-66
2022/01/13 05:15:03;;;;;;;;;;;;;;;18.81;46.84;101426.53;2089347;28;19923;-66
2022/01/13 05:16:04;;;;;;;;;;;;;;;18.81;46.94;101440.19;2094426;28;20391;-66
2022/01/13 05:17:12;;;;;;;;;;;;;;;18.81;46.77;101433.81;2088963;28;20400;-65
2022/01/13 05:19:29;;;;;;;;;;;;;;;18.80;46.72;101441.16;2092843;28;19922;-66
2022/01/13 05:20:39;;;;;;;;;;;;;;;18.80;46.71;101440.28;2090589;28;20000;-65
2022/01/13 05:22:58;;;;;;;;;;;;;;;18.79;46.89;101446.72;2091407;28;19985;-66
2022/01/13 05:23:58;;;;;;;;;;;;;;;18.79;46.87;101439.44;2092354;28;19923;-66
2022/01/13 05:24:58;;;;;;;;;;;;;;;18.78;46.83;101437.66;2092346;28;19920;-66
2022/01/13 05:25:59;;;;;;;;;;;;;;;18.78;46.81;101439.53;2092327;28;19919;-66
2022/01/13 05:26:59;;;;;;;;;;;;;;;18.78;46.79;101436.81;2090910;28;19920;-66
2022/01/13 05:27:59;;;;;;;;;;;;;;;18.78;46.71;101440.41;2090187;28;20316;-66
2022/01/13 05:29:00;;;;;;;;;;;;;;;18.76;46.81;101434.16;2090991;28;19920;-66
2022/01/13 05:30:02;;;;;;;;;;;;;;;18.77;46.92;101440.53;2071239;28;20048;-66
2022/01/13 05:31:02;;;;;;;;;;;;;;;18.76;46.73;101434.16;2066917;28;20039;-65
2022/01/13 05:32:04;;;;;;;;;;;;;;;18.76;46.79;101433.31;2088560;28;20655;-65
2022/01/13 05:33:04;;;;;;;;;;;;;;;18.76;46.86;101434.16;2092620;28;20459;-67
2022/01/13 05:34:04;;;;;;;;;;;;;;;18.76;46.97;101428.72;2091425;28;19920;-65
2022/01/13 05:35:05;;;;;;;;;;;;;;;18.75;46.84;101429.69;2091603;28;20569;-65
2022/01/13 05:36:05;;;;;;;;;;;;;;;18.74;46.75;101430.69;2097132;28;19920;-66
2022/01/13 05:37:06;;;;;;;;;;;;;;;18.74;46.83;101435.25;2090268;28;19926;-66
2022/01/13 05:38:07;;;;;;;;;;;;;;;18.74;46.77;101436.13;2091980;28;19978;-66
2022/01/13 05:39:07;;;;;;;;;;;;;;;18.74;46.71;101430.69;2081976;28;20473;-66
2022/01/13 05:40:08;;;;;;;;;;;;;;;18.75;46.79;101435.13;2082718;28;19998;-66